createdAt,value
2023-04-02T00:00:12.517Z,93352.72
2023-04-02T00:03:16.041Z,93348.38
2023-04-02T00:06:33.451Z,93366.69
2023-04-02T00:09:39.640Z,93385.19
2023-04-02T00:13:19.566Z,93373.94
2023-04-02T00:16:25.692Z,93379.31
2023-04-02T00:19:39.312Z,93372.69
2023-04-02T00:22:46.019Z,93372.97
2023-04-02T00:25:49.352Z,93389.31
2023-04-02T00:28:53.374Z,93346.63
2023-04-02T00:31:59.868Z,93314.81
2023-04-02T00:35:04.450Z,93303.13
2023-04-02T00:38:08.846Z,93317.84
2023-04-02T00:41:19.105Z,93281.44
2023-04-02T00:44:22.925Z,93285.50
2023-04-02T00:47:35.637Z,93263.25
2023-04-02T00:50:43.663Z,93269.13
2023-04-02T00:53:49.788Z,93274.66
2023-04-02T00:56:58.831Z,93284.00
2023-04-02T01:00:19.282Z,93284.31
2023-04-02T01:03:25.247Z,93317.91
2023-04-02T01:06:34.926Z,93304.69
2023-04-02T01:09:58.160Z,93264.34
2023-04-02T01:13:27.497Z,93272.84
2023-04-02T01:16:39.662Z,93309.34
2023-04-02T01:20:13.510Z,93316.63
2023-04-02T01:23:40.382Z,93308.81
2023-04-02T01:27:03.075Z,93330.88
2023-04-02T01:30:08.094Z,93324.84
2023-04-02T01:33:13.323Z,93333.22
2023-04-02T01:36:34.859Z,93333.41
2023-04-02T01:40:00.086Z,93321.13
2023-04-02T01:43:29.175Z,93320.03
2023-04-02T01:46:34.461Z,93310.75
2023-04-02T01:49:37.811Z,93320.59
2023-04-02T01:52:44.279Z,93333.50
2023-04-02T01:56:01.249Z,93338.94
2023-04-02T01:59:06.953Z,93332.56
2023-04-02T02:02:14.677Z,93335.28
2023-04-02T02:05:23.889Z,93345.78
2023-04-02T02:08:39.475Z,93336.88
2023-04-02T02:11:45.125Z,93337.53
2023-04-02T02:14:53.121Z,93349.56
2023-04-02T02:18:04.133Z,93343.34
2023-04-02T02:21:10.947Z,93353.63
2023-04-02T02:24:36.410Z,93361.06
2023-04-02T02:27:56.243Z,93356.63
2023-04-02T02:31:00.464Z,93374.59
2023-04-02T02:34:19.523Z,93377.75
2023-04-02T02:37:30.993Z,93376.41
2023-04-02T02:40:46.151Z,93371.81
2023-04-02T02:44:12.240Z,93370.69
2023-04-02T02:47:17.373Z,93385.66
2023-04-02T02:50:27.650Z,93381.91
2023-04-02T02:53:31.339Z,93377.06
2023-04-02T02:56:40.411Z,93360.97
2023-04-02T02:59:44.490Z,93380.88
2023-04-02T03:02:50.279Z,93373.72
2023-04-02T03:05:58.802Z,93364.19
2023-04-02T03:09:19.501Z,93372.69
2023-04-02T03:12:42.246Z,93354.97
2023-04-02T03:15:59.188Z,93354.72
2023-04-02T03:19:21.404Z,93349.22
2023-04-02T03:22:32.910Z,93353.72
2023-04-02T03:25:42.332Z,93344.22
2023-04-02T03:29:18.832Z,93346.47
2023-04-02T03:32:27.320Z,93332.63
2023-04-02T03:36:01.592Z,93333.81
2023-04-02T03:39:34.548Z,93334.22
2023-04-02T03:42:51.985Z,93327.44
2023-04-02T03:46:31.881Z,93320.09
2023-04-02T03:49:47.422Z,93326.91
2023-04-02T03:52:51.247Z,93321.94
2023-04-02T03:55:56.542Z,93311.19
2023-04-02T03:59:22.879Z,93302.69
2023-04-02T04:02:47.268Z,93313.47
2023-04-02T04:05:58.154Z,93318.13
2023-04-02T04:09:10.428Z,93317.91
2023-04-02T04:12:36.824Z,93293.47
2023-04-02T04:15:55.345Z,93297.78
2023-04-02T04:19:08.797Z,93277.78
2023-04-02T04:22:19.614Z,93265.69
2023-04-02T04:25:36.139Z,93267.22
2023-04-02T04:29:13.050Z,93260.72
2023-04-02T04:32:28.037Z,93265.41
2023-04-02T04:35:40.917Z,93261.91
2023-04-02T04:38:56.306Z,93254.19
2023-04-02T04:42:04.054Z,93265.41
2023-04-02T04:45:29.883Z,93263.22
2023-04-02T04:48:39.136Z,93244.34
2023-04-02T04:51:55.564Z,93250.59
2023-04-02T04:55:01.116Z,93251.03
2023-04-02T04:58:20.445Z,93246.00
2023-04-02T05:01:36.482Z,93241.13
2023-04-02T05:04:45.078Z,93246.63
2023-04-02T05:08:01.477Z,93253.66
2023-04-02T05:11:30.361Z,93280.75
2023-04-02T05:14:42.588Z,93247.19
2023-04-02T05:17:54.955Z,93238.44
2023-04-02T05:21:35.719Z,93213.09
2023-04-02T05:24:46.710Z,93204.41
2023-04-02T05:28:11.587Z,93196.34
2023-04-02T05:31:38.230Z,93206.03
2023-04-02T05:34:43.802Z,93211.66
2023-04-02T05:37:48.065Z,93196.91
2023-04-02T05:41:00.464Z,93204.91
2023-04-02T05:44:23.404Z,93203.56
2023-04-02T05:47:32.235Z,93199.50
2023-04-02T05:50:41.448Z,93207.22
2023-04-02T05:53:55.916Z,93199.38
2023-04-02T05:57:07.253Z,93194.63
2023-04-02T06:00:20.113Z,93188.44
2023-04-02T06:03:46.798Z,93186.16
2023-04-02T06:07:15.005Z,93175.78
2023-04-02T06:10:33.140Z,93190.97
2023-04-02T06:13:36.624Z,93201.53
2023-04-02T06:16:40.157Z,93188.09
2023-04-02T06:19:45.011Z,93168.28
2023-04-02T06:23:18.864Z,93160.00
2023-04-02T06:26:37.670Z,93151.38
2023-04-02T06:29:45.717Z,93164.00
2023-04-02T06:32:53.535Z,93173.31
2023-04-02T06:35:58.815Z,93174.28
2023-04-02T06:39:12.506Z,93165.50
2023-04-02T06:42:27.353Z,93163.44
2023-04-02T06:45:50.551Z,93155.22
2023-04-02T06:49:14.882Z,93144.84
2023-04-02T06:52:24.657Z,93156.91
2023-04-02T06:55:48.437Z,93177.19
2023-04-02T06:58:56.760Z,93162.28
2023-04-02T07:02:06.873Z,93153.59
2023-04-02T07:05:12.191Z,93142.59
2023-04-02T07:08:21.174Z,93160.84
2023-04-02T07:11:24.932Z,93168.75
2023-04-02T07:14:31.260Z,93150.75
2023-04-02T07:17:34.541Z,93146.19
2023-04-02T07:20:42.379Z,93163.38
2023-04-02T07:23:48.980Z,93170.22
2023-04-02T07:26:52.552Z,93163.44
2023-04-02T07:29:55.722Z,93167.25
2023-04-02T07:32:59.131Z,93153.00
2023-04-02T07:36:02.474Z,93142.88
2023-04-02T07:39:06.027Z,93150.97
2023-04-02T07:42:09.332Z,93137.94
2023-04-02T07:45:12.653Z,93137.00
2023-04-02T07:48:16.101Z,93143.13
2023-04-02T07:51:22.849Z,93128.94
2023-04-02T07:54:27.888Z,93132.19
2023-04-02T07:57:31.271Z,93131.28
2023-04-02T08:00:34.544Z,93134.41
2023-04-02T08:03:37.888Z,93134.41
2023-04-02T08:06:41.323Z,93119.84
2023-04-02T08:09:44.564Z,93130.47
2023-04-02T08:12:47.720Z,93129.78
2023-04-02T08:15:51.758Z,93130.44
2023-04-02T08:18:54.869Z,93135.94
2023-04-02T08:21:58.137Z,93138.19
2023-04-02T08:25:01.636Z,93132.44
2023-04-02T08:28:04.865Z,93121.50
2023-04-02T08:31:09.699Z,93126.53
2023-04-02T08:34:13.429Z,93122.94
2023-04-02T08:37:16.808Z,93131.47
2023-04-02T08:40:25.696Z,93133.22
2023-04-02T08:43:54.883Z,93123.06
2023-04-02T08:47:05.687Z,93122.31
2023-04-02T08:50:36.267Z,93125.66
2023-04-02T08:53:42.603Z,93128.19
2023-04-02T08:56:54.095Z,93129.88
2023-04-02T09:00:07.244Z,93116.00
2023-04-02T09:03:12.227Z,93126.47
2023-04-02T09:06:20.034Z,93123.56
2023-04-02T09:09:24.539Z,93113.59
2023-04-02T09:12:29.217Z,93119.00
2023-04-02T09:15:37.243Z,93115.56
2023-04-02T09:18:42.244Z,93118.25
2023-04-02T09:21:59.555Z,93119.03
2023-04-02T09:25:05.457Z,93124.25
2023-04-02T09:28:12.583Z,93116.94
2023-04-02T09:31:33.289Z,93116.25
2023-04-02T09:34:37.585Z,93112.00
2023-04-02T09:37:41.709Z,93106.09
2023-04-02T09:40:53.251Z,93106.69
2023-04-02T09:44:24.295Z,93107.34
2023-04-02T09:47:29.429Z,93112.56
2023-04-02T09:50:34.372Z,93114.34
2023-04-02T09:53:42.303Z,93118.63
2023-04-02T09:57:04.048Z,93116.94
2023-04-02T10:00:32.473Z,93112.53
2023-04-02T10:03:36.354Z,93111.88
2023-04-02T10:06:51.093Z,93120.78
2023-04-02T10:10:01.998Z,93119.94
2023-04-02T10:13:49.652Z,93121.81
2023-04-02T10:17:06.221Z,93124.94
2023-04-02T10:20:27.426Z,93127.50
2023-04-02T10:23:32.129Z,93127.50
2023-04-02T10:26:50.253Z,93123.88
2023-04-02T10:30:17.656Z,93121.38
2023-04-02T10:33:30.934Z,93126.75
2023-04-02T10:36:49.670Z,93124.16
2023-04-02T10:40:17.902Z,93142.53
2023-04-02T10:43:48.283Z,93136.84
2023-04-02T10:47:04.347Z,93148.88
2023-04-02T10:50:30.229Z,93145.09
2023-04-02T10:54:04.611Z,93145.41
2023-04-02T10:57:26.321Z,93154.47
2023-04-02T11:00:34.030Z,93149.34
2023-04-02T11:03:37.901Z,93149.44
2023-04-02T11:07:19.077Z,93148.88
2023-04-02T11:10:22.557Z,93154.09
2023-04-02T11:13:42.580Z,93144.31
2023-04-02T11:16:46.309Z,93150.53
2023-04-02T11:19:49.574Z,93144.66
2023-04-02T11:23:15.693Z,93154.47
2023-04-02T11:26:41.889Z,93157.69
2023-04-02T11:30:20.613Z,93158.34
2023-04-02T11:33:39.811Z,93161.25
2023-04-02T11:36:51.485Z,93162.72
2023-04-02T11:39:57.940Z,93167.66
2023-04-02T11:43:38.053Z,93164.56
2023-04-02T11:46:43.086Z,93162.69
2023-04-02T11:50:01.032Z,93167.03
2023-04-02T11:53:35.135Z,93167.72
2023-04-02T11:56:47.239Z,93164.25
2023-04-02T12:00:14.380Z,93164.72
2023-04-02T12:03:49.005Z,93163.63
2023-04-02T12:06:55.464Z,93161.84
2023-04-02T12:10:01.457Z,93159.59
2023-04-02T12:13:04.678Z,93165.19
2023-04-02T12:16:10.592Z,93158.50
2023-04-02T12:19:17.584Z,93162.19
2023-04-02T12:22:28.437Z,93173.97
2023-04-02T12:25:32.858Z,93167.19
2023-04-02T12:28:38.813Z,93161.72
2023-04-02T12:31:49.464Z,93165.63
2023-04-02T12:34:55.298Z,93166.19
2023-04-02T12:37:58.811Z,93170.75
2023-04-02T12:41:07.375Z,93174.19
2023-04-02T12:44:24.749Z,93164.28
2023-04-02T12:47:29.600Z,93162.84
2023-04-02T12:50:35.044Z,93151.25
2023-04-02T12:53:41.603Z,93160.06
2023-04-02T12:56:45.447Z,93161.97
2023-04-02T12:59:48.742Z,93167.09
2023-04-02T13:03:07.110Z,93165.88
2023-04-02T13:06:23.578Z,93160.50
2023-04-02T13:09:42.992Z,93162.75
2023-04-02T13:12:46.818Z,93161.19
2023-04-02T13:16:04.162Z,93158.22
2023-04-02T13:19:28.248Z,93155.06
2023-04-02T13:22:32.673Z,93147.16
2023-04-02T13:25:37.568Z,93151.19
2023-04-02T13:28:40.989Z,93157.75
2023-04-02T13:31:44.292Z,93147.03
2023-04-02T13:34:47.843Z,93155.72
2023-04-02T13:37:51.178Z,93143.72
2023-04-02T13:40:54.465Z,93151.72
2023-04-02T13:44:01.020Z,93158.94
2023-04-02T13:47:04.291Z,93160.84
2023-04-02T13:50:07.847Z,93157.06
2023-04-02T13:53:21.668Z,93163.94
2023-04-02T13:56:25.496Z,93165.28
2023-04-02T13:59:28.888Z,93162.84
2023-04-02T14:02:33.842Z,93162.97
2023-04-02T14:05:52.743Z,93163.63
2023-04-02T14:09:27.008Z,93162.06
2023-04-02T14:12:54.600Z,93164.81
2023-04-02T14:15:57.972Z,93163.41
2023-04-02T14:19:11.554Z,93165.28
2023-04-02T14:22:39.619Z,93170.41
2023-04-02T14:26:08.794Z,93166.19
2023-04-02T14:29:42.195Z,93166.41
2023-04-02T14:32:54.169Z,93170.31
2023-04-02T14:36:32.514Z,93174.78
2023-04-02T14:39:53.843Z,93176.00
2023-04-02T14:43:24.626Z,93168.31
2023-04-02T14:46:29.801Z,93172.56
2023-04-02T14:49:40.551Z,93177.00
2023-04-02T14:52:47.905Z,93167.97
2023-04-02T14:55:58.856Z,93162.19
2023-04-02T14:59:36.909Z,93160.16
2023-04-02T15:06:48.048Z,93162.97
2023-04-02T15:10:05.245Z,93161.06
2023-04-02T15:13:32.696Z,93163.28
2023-04-02T15:16:45.225Z,93160.38
2023-04-02T15:19:55.929Z,93159.94
2023-04-02T15:23:20.457Z,93156.59
